sensor_id;sensor_type;location;lat;lon;timestamp;P1;P2;P0
73631;PMS5003;61924;53.268;-2.458;2023-02-08T00:00:44;13;13;
73631;PMS5003;61924;53.268;-2.458;2023-02-08T00:03:10;12;12;
73631;PMS5003;61924;53.268;-2.458;2023-02-08T00:05:35;15;15;
73631;PMS5003;61924;53.268;-2.458;2023-02-08T00:08:00;14;14;
73631;PMS5003;61924;53.268;-2.458;2023-02-08T00:10:26;13;12;
73631;PMS5003;61924;53.268;-2.458;2023-02-08T00:12:51;11;10;
73631;PMS5003;61924;53.268;-2.458;2023-02-08T00:15:17;17;16;
73631;PMS5003;61924;53.268;-2.458;2023-02-08T00:17:43;11;9;
73631;PMS5003;61924;53.268;-2.458;2023-02-08T00:20:09;13;11;
73631;PMS5003;61924;53.268;-2.458;2023-02-08T00:22:34;13;12;
73631;PMS5003;61924;53.268;-2.458;2023-02-08T00:24:59;12;12;
73631;PMS5003;61924;53.268;-2.458;2023-02-08T00:27:25;9;8;
73631;PMS5003;61924;53.268;-2.458;2023-02-08T00:29:50;11;11;
73631;PMS5003;61924;53.268;-2.458;2023-02-08T00:32:16;12;11;
73631;PMS5003;61924;53.268;-2.458;2023-02-08T00:34:41;13;12;
73631;PMS5003;61924;53.268;-2.458;2023-02-08T00:37:07;10;10;
73631;PMS5003;61924;53.268;-2.458;2023-02-08T00:39:32;13;10;
73631;PMS5003;61924;53.268;-2.458;2023-02-08T00:41:57;12;11;
73631;PMS5003;61924;53.268;-2.458;2023-02-08T00:44:23;11;11;
73631;PMS5003;61924;53.268;-2.458;2023-02-08T00:46:49;11;11;
73631;PMS5003;61924;53.268;-2.458;2023-02-08T00:49:14;10;9;
73631;PMS5003;61924;53.268;-2.458;2023-02-08T00:51:40;9;8;
73631;PMS5003;61924;53.268;-2.458;2023-02-08T00:54:05;9;9;
73631;PMS5003;61924;53.268;-2.458;2023-02-08T00:56:31;8;7;
73631;PMS5003;61924;53.268;-2.458;2023-02-08T00:58:57;11;9;
73631;PMS5003;61924;53.268;-2.458;2023-02-08T01:01:22;10;10;
73631;PMS5003;61924;53.268;-2.458;2023-02-08T01:03:48;10;10;
73631;PMS5003;61924;53.268;-2.458;2023-02-08T01:06:14;11;9;
73631;PMS5003;61924;53.268;-2.458;2023-02-08T01:08:38;10;10;
73631;PMS5003;61924;53.268;-2.458;2023-02-08T01:11:05;10;10;
73631;PMS5003;61924;53.268;-2.458;2023-02-08T01:13:29;10;10;
73631;PMS5003;61924;53.268;-2.458;2023-02-08T01:15:55;10;8;
73631;PMS5003;61924;53.268;-2.458;2023-02-08T01:18:20;10;10;
73631;PMS5003;61924;53.268;-2.458;2023-02-08T01:20:46;9;8;
73631;PMS5003;61924;53.268;-2.458;2023-02-08T01:23:11;11;9;
73631;PMS5003;61924;53.268;-2.458;2023-02-08T01:25:37;9;9;
73631;PMS5003;61924;53.268;-2.458;2023-02-08T01:28:02;6;6;
73631;PMS5003;61924;53.268;-2.458;2023-02-08T01:30:27;9;9;
73631;PMS5003;61924;53.268;-2.458;2023-02-08T01:32:53;9;8;
73631;PMS5003;61924;53.268;-2.458;2023-02-08T01:35:18;8;8;
73631;PMS5003;61924;53.268;-2.458;2023-02-08T01:37:43;8;8;
73631;PMS5003;61924;53.268;-2.458;2023-02-08T01:40:09;8;8;
73631;PMS5003;61924;53.268;-2.458;2023-02-08T01:42:34;7;7;
73631;PMS5003;61924;53.268;-2.458;2023-02-08T01:45:31;9;8;
73631;PMS5003;61924;53.268;-2.458;2023-02-08T01:47:25;9;8;
73631;PMS5003;61924;53.268;-2.458;2023-02-08T01:49:50;7;7;
73631;PMS5003;61924;53.268;-2.458;2023-02-08T01:52:17;12;8;
73631;PMS5003;61924;53.268;-2.458;2023-02-08T01:54:42;9;9;
73631;PMS5003;61924;53.268;-2.458;2023-02-08T01:57:07;8;8;
73631;PMS5003;61924;53.268;-2.458;2023-02-08T01:59:33;9;8;
73631;PMS5003;61924;53.268;-2.458;2023-02-08T02:01:57;8;8;
73631;PMS5003;61924;53.268;-2.458;2023-02-08T02:04:22;9;8;
73631;PMS5003;61924;53.268;-2.458;2023-02-08T02:06:49;11;9;
73631;PMS5003;61924;53.268;-2.458;2023-02-08T02:09:15;9;9;
73631;PMS5003;61924;53.268;-2.458;2023-02-08T02:11:38;11;10;
73631;PMS5003;61924;53.268;-2.458;2023-02-08T02:14:04;8;8;
73631;PMS5003;61924;53.268;-2.458;2023-02-08T02:16:29;8;8;
73631;PMS5003;61924;53.268;-2.458;2023-02-08T02:18:55;12;12;
73631;PMS5003;61924;53.268;-2.458;2023-02-08T02:21:24;13;12;
73631;PMS5003;61924;53.268;-2.458;2023-02-08T02:23:53;11;9;
73631;PMS5003;61924;53.268;-2.458;2023-02-08T02:26:16;9;8;
73631;PMS5003;61924;53.268;-2.458;2023-02-08T02:28:50;11;10;
73631;PMS5003;61924;53.268;-2.458;2023-02-08T02:31:40;9;8;
73631;PMS5003;61924;53.268;-2.458;2023-02-08T02:33:30;11;11;
73631;PMS5003;61924;53.268;-2.458;2023-02-08T02:35:55;7;7;
73631;PMS5003;61924;53.268;-2.458;2023-02-08T02:38:19;11;11;
73631;PMS5003;61924;53.268;-2.458;2023-02-08T02:40:47;9;9;
73631;PMS5003;61924;53.268;-2.458;2023-02-08T02:43:10;10;10;
73631;PMS5003;61924;53.268;-2.458;2023-02-08T02:45:38;9;9;
73631;PMS5003;61924;53.268;-2.458;2023-02-08T02:48:01;7;7;
73631;PMS5003;61924;53.268;-2.458;2023-02-08T02:50:28;11;9;
73631;PMS5003;61924;53.268;-2.458;2023-02-08T02:52:54;8;8;
73631;PMS5003;61924;53.268;-2.458;2023-02-08T02:55:19;11;11;
73631;PMS5003;61924;53.268;-2.458;2023-02-08T02:57:43;8;8;
73631;PMS5003;61924;53.268;-2.458;2023-02-08T03:00:09;8;7;
73631;PMS5003;61924;53.268;-2.458;2023-02-08T03:02:34;8;8;
73631;PMS5003;61924;53.268;-2.458;2023-02-08T03:04:59;9;7;
73631;PMS5003;61924;53.268;-2.458;2023-02-08T03:07:30;10;9;
73631;PMS5003;61924;53.268;-2.458;2023-02-08T03:09:51;10;9;
73631;PMS5003;61924;53.268;-2.458;2023-02-08T03:12:20;8;8;
73631;PMS5003;61924;53.268;-2.458;2023-02-08T03:14:42;8;8;
73631;PMS5003;61924;53.268;-2.458;2023-02-08T03:17:12;7;7;
73631;PMS5003;61924;53.268;-2.458;2023-02-08T03:19:33;9;8;
73631;PMS5003;61924;53.268;-2.458;2023-02-08T03:21:57;7;7;
73631;PMS5003;61924;53.268;-2.458;2023-02-08T03:24:24;10;9;
73631;PMS5003;61924;53.268;-2.458;2023-02-08T03:26:50;10;9;
73631;PMS5003;61924;53.268;-2.458;2023-02-08T03:29:14;7;7;
73631;PMS5003;61924;53.268;-2.458;2023-02-08T03:31:41;7;7;
73631;PMS5003;61924;53.268;-2.458;2023-02-08T03:34:05;8;8;
73631;PMS5003;61924;53.268;-2.458;2023-02-08T03:36:31;6;6;
73631;PMS5003;61924;53.268;-2.458;2023-02-08T03:38:56;11;9;
73631;PMS5003;61924;53.268;-2.458;2023-02-08T03:41:23;8;7;
73631;PMS5003;61924;53.268;-2.458;2023-02-08T03:43:47;10;9;
73631;PMS5003;61924;53.268;-2.458;2023-02-08T03:46:12;7;7;
73631;PMS5003;61924;53.268;-2.458;2023-02-08T03:48:38;8;8;
73631;PMS5003;61924;53.268;-2.458;2023-02-08T03:51:03;6;6;
73631;PMS5003;61924;53.268;-2.458;2023-02-08T03:53:28;11;10;
73631;PMS5003;61924;53.268;-2.458;2023-02-08T03:55:54;6;6;
73631;PMS5003;61924;53.268;-2.458;2023-02-08T03:58:20;9;8;
73631;PMS5003;61924;53.268;-2.458;2023-02-08T04:00:44;10;8;
73631;PMS5003;61924;53.268;-2.458;2023-02-08T04:03:10;5;5;
73631;PMS5003;61924;53.268;-2.458;2023-02-08T04:05:34;8;7;
73631;PMS5003;61924;53.268;-2.458;2023-02-08T04:08:00;9;7;
73631;PMS5003;61924;53.268;-2.458;2023-02-08T04:10:26;10;9;
73631;PMS5003;61924;53.268;-2.458;2023-02-08T04:12:51;9;9;
73631;PMS5003;61924;53.268;-2.458;2023-02-08T04:15:17;8;7;
73631;PMS5003;61924;53.268;-2.458;2023-02-08T04:17:42;9;8;
73631;PMS5003;61924;53.268;-2.458;2023-02-08T04:20:07;8;7;
73631;PMS5003;61924;53.268;-2.458;2023-02-08T04:22:32;7;7;
73631;PMS5003;61924;53.268;-2.458;2023-02-08T04:24:58;9;7;
73631;PMS5003;61924;53.268;-2.458;2023-02-08T04:27:23;8;8;
73631;PMS5003;61924;53.268;-2.458;2023-02-08T04:29:48;10;9;
73631;PMS5003;61924;53.268;-2.458;2023-02-08T04:32:14;7;7;
73631;PMS5003;61924;53.268;-2.458;2023-02-08T04:34:39;8;7;
73631;PMS5003;61924;53.268;-2.458;2023-02-08T04:37:05;7;6;
73631;PMS5003;61924;53.268;-2.458;2023-02-08T04:39:31;7;7;
73631;PMS5003;61924;53.268;-2.458;2023-02-08T04:41:57;6;6;
73631;PMS5003;61924;53.268;-2.458;2023-02-08T04:44:22;8;7;
73631;PMS5003;61924;53.268;-2.458;2023-02-08T04:46:47;7;7;
73631;PMS5003;61924;53.268;-2.458;2023-02-08T04:49:12;7;7;
73631;PMS5003;61924;53.268;-2.458;2023-02-08T04:51:38;8;8;
73631;PMS5003;61924;53.268;-2.458;2023-02-08T04:54:03;5;5;
73631;PMS5003;61924;53.268;-2.458;2023-02-08T04:56:29;6;5;
73631;PMS5003;61924;53.268;-2.458;2023-02-08T04:58:54;9;9;
73631;PMS5003;61924;53.268;-2.458;2023-02-08T05:01:20;8;8;
73631;PMS5003;61924;53.268;-2.458;2023-02-08T05:03:45;12;12;
73631;PMS5003;61924;53.268;-2.458;2023-02-08T05:06:11;17;17;
73631;PMS5003;61924;53.268;-2.458;2023-02-08T05:08:36;71;71;
73631;PMS5003;61924;53.268;-2.458;2023-02-08T05:11:02;126;125;
73631;PMS5003;61924;53.268;-2.458;2023-02-08T05:13:27;168;167;
73631;PMS5003;61924;53.268;-2.458;2023-02-08T05:15:52;203;200;
73631;PMS5003;61924;53.268;-2.458;2023-02-08T05:18:18;201;198;
73631;PMS5003;61924;53.268;-2.458;2023-02-08T05:20:44;193;191;
73631;PMS5003;61924;53.268;-2.458;2023-02-08T05:23:09;197;194;
73631;PMS5003;61924;53.268;-2.458;2023-02-08T05:25:34;193;191;
73631;PMS5003;61924;53.268;-2.458;2023-02-08T05:27:59;200;200;
73631;PMS5003;61924;53.268;-2.458;2023-02-08T05:30:25;188;188;
73631;PMS5003;61924;53.268;-2.458;2023-02-08T05:32:50;190;189;
73631;PMS5003;61924;53.268;-2.458;2023-02-08T05:35:16;195;193;
73631;PMS5003;61924;53.268;-2.458;2023-02-08T05:37:41;188;186;
73631;PMS5003;61924;53.268;-2.458;2023-02-08T05:40:07;189;187;
73631;PMS5003;61924;53.268;-2.458;2023-02-08T05:42:32;187;186;
73631;PMS5003;61924;53.268;-2.458;2023-02-08T05:44:57;182;181;
73631;PMS5003;61924;53.268;-2.458;2023-02-08T05:47:22;177;177;
73631;PMS5003;61924;53.268;-2.458;2023-02-08T05:49:48;172;170;
73631;PMS5003;61924;53.268;-2.458;2023-02-08T05:52:13;163;161;
73631;PMS5003;61924;53.268;-2.458;2023-02-08T05:54:39;164;163;
73631;PMS5003;61924;53.268;-2.458;2023-02-08T05:57:05;161;161;
73631;PMS5003;61924;53.268;-2.458;2023-02-08T05:59:30;156;155;
73631;PMS5003;61924;53.268;-2.458;2023-02-08T06:01:55;157;155;
73631;PMS5003;61924;53.268;-2.458;2023-02-08T06:04:21;154;151;
73631;PMS5003;61924;53.268;-2.458;2023-02-08T06:06:46;147;146;
73631;PMS5003;61924;53.268;-2.458;2023-02-08T06:09:11;145;145;
73631;PMS5003;61924;53.268;-2.458;2023-02-08T06:11:37;141;139;
73631;PMS5003;61924;53.268;-2.458;2023-02-08T06:14:02;131;128;
73631;PMS5003;61924;53.268;-2.458;2023-02-08T06:16:28;131;131;
73631;PMS5003;61924;53.268;-2.458;2023-02-08T06:18:53;126;126;
73631;PMS5003;61924;53.268;-2.458;2023-02-08T06:21:19;120;119;
73631;PMS5003;61924;53.268;-2.458;2023-02-08T06:23:45;121;120;
73631;PMS5003;61924;53.268;-2.458;2023-02-08T06:26:10;114;114;
73631;PMS5003;61924;53.268;-2.458;2023-02-08T06:28:35;117;115;
73631;PMS5003;61924;53.268;-2.458;2023-02-08T06:31:00;108;108;
73631;PMS5003;61924;53.268;-2.458;2023-02-08T06:33:26;103;103;
73631;PMS5003;61924;53.268;-2.458;2023-02-08T06:35:52;104;104;
73631;PMS5003;61924;53.268;-2.458;2023-02-08T06:38:18;93;93;
73631;PMS5003;61924;53.268;-2.458;2023-02-08T06:40:44;99;98;
73631;PMS5003;61924;53.268;-2.458;2023-02-08T06:43:08;91;89;
73631;PMS5003;61924;53.268;-2.458;2023-02-08T06:45:33;88;88;
73631;PMS5003;61924;53.268;-2.458;2023-02-08T06:47:59;91;91;
73631;PMS5003;61924;53.268;-2.458;2023-02-08T06:50:25;85;84;
73631;PMS5003;61924;53.268;-2.458;2023-02-08T06:52:50;87;87;
73631;PMS5003;61924;53.268;-2.458;2023-02-08T06:55:16;77;76;
73631;PMS5003;61924;53.268;-2.458;2023-02-08T06:57:41;79;79;
73631;PMS5003;61924;53.268;-2.458;2023-02-08T07:00:07;81;80;
73631;PMS5003;61924;53.268;-2.458;2023-02-08T07:02:32;81;80;
73631;PMS5003;61924;53.268;-2.458;2023-02-08T07:04:57;76;75;
73631;PMS5003;61924;53.268;-2.458;2023-02-08T07:07:23;75;74;
73631;PMS5003;61924;53.268;-2.458;2023-02-08T07:09:49;70;70;
73631;PMS5003;61924;53.268;-2.458;2023-02-08T07:12:15;66;65;
73631;PMS5003;61924;53.268;-2.458;2023-02-08T07:14:41;65;65;
73631;PMS5003;61924;53.268;-2.458;2023-02-08T07:17:05;61;61;
73631;PMS5003;61924;53.268;-2.458;2023-02-08T07:19:30;62;62;
73631;PMS5003;61924;53.268;-2.458;2023-02-08T07:21:56;63;62;
73631;PMS5003;61924;53.268;-2.458;2023-02-08T07:24:21;58;57;
73631;PMS5003;61924;53.268;-2.458;2023-02-08T07:26:46;59;58;
73631;PMS5003;61924;53.268;-2.458;2023-02-08T07:29:12;55;54;
73631;PMS5003;61924;53.268;-2.458;2023-02-08T07:31:38;58;57;
73631;PMS5003;61924;53.268;-2.458;2023-02-08T07:34:03;55;54;
73631;PMS5003;61924;53.268;-2.458;2023-02-08T07:36:28;54;53;
73631;PMS5003;61924;53.268;-2.458;2023-02-08T07:38:56;54;53;
73631;PMS5003;61924;53.268;-2.458;2023-02-08T07:41:19;56;54;
73631;PMS5003;61924;53.268;-2.458;2023-02-08T07:43:44;51;51;
73631;PMS5003;61924;53.268;-2.458;2023-02-08T07:46:11;51;50;
73631;PMS5003;61924;53.268;-2.458;2023-02-08T07:48:35;48;48;
73631;PMS5003;61924;53.268;-2.458;2023-02-08T07:51:01;53;53;
73631;PMS5003;61924;53.268;-2.458;2023-02-08T07:53:26;52;51;
73631;PMS5003;61924;53.268;-2.458;2023-02-08T07:55:51;45;45;
73631;PMS5003;61924;53.268;-2.458;2023-02-08T07:58:16;48;46;
73631;PMS5003;61924;53.268;-2.458;2023-02-08T08:00:42;43;43;
73631;PMS5003;61924;53.268;-2.458;2023-02-08T08:03:07;42;41;
73631;PMS5003;61924;53.268;-2.458;2023-02-08T08:05:32;48;47;
73631;PMS5003;61924;53.268;-2.458;2023-02-08T08:07:57;43;43;
73631;PMS5003;61924;53.268;-2.458;2023-02-08T08:10:23;44;43;
73631;PMS5003;61924;53.268;-2.458;2023-02-08T08:12:48;40;40;
73631;PMS5003;61924;53.268;-2.458;2023-02-08T08:15:13;38;37;
73631;PMS5003;61924;53.268;-2.458;2023-02-08T08:17:39;40;40;
73631;PMS5003;61924;53.268;-2.458;2023-02-08T08:20:04;40;39;
73631;PMS5003;61924;53.268;-2.458;2023-02-08T08:22:29;38;38;
73631;PMS5003;61924;53.268;-2.458;2023-02-08T08:24:54;38;37;
73631;PMS5003;61924;53.268;-2.458;2023-02-08T08:27:20;41;40;
73631;PMS5003;61924;53.268;-2.458;2023-02-08T08:29:45;43;43;
73631;PMS5003;61924;53.268;-2.458;2023-02-08T08:32:11;42;41;
73631;PMS5003;61924;53.268;-2.458;2023-02-08T08:34:36;37;37;
73631;PMS5003;61924;53.268;-2.458;2023-02-08T08:37:01;35;35;
73631;PMS5003;61924;53.268;-2.458;2023-02-08T08:39:27;35;35;
73631;PMS5003;61924;53.268;-2.458;2023-02-08T08:41:52;37;37;
73631;PMS5003;61924;53.268;-2.458;2023-02-08T08:44:18;39;39;
73631;PMS5003;61924;53.268;-2.458;2023-02-08T08:46:44;40;38;
73631;PMS5003;61924;53.268;-2.458;2023-02-08T08:49:09;33;33;
73631;PMS5003;61924;53.268;-2.458;2023-02-08T08:51:35;33;33;
73631;PMS5003;61924;53.268;-2.458;2023-02-08T08:54:00;37;35;
73631;PMS5003;61924;53.268;-2.458;2023-02-08T08:56:26;35;35;
73631;PMS5003;61924;53.268;-2.458;2023-02-08T08:58:51;37;37;
73631;PMS5003;61924;53.268;-2.458;2023-02-08T09:01:17;31;31;
73631;PMS5003;61924;53.268;-2.458;2023-02-08T09:03:42;31;31;
73631;PMS5003;61924;53.268;-2.458;2023-02-08T09:06:08;33;33;
73631;PMS5003;61924;53.268;-2.458;2023-02-08T09:08:33;36;33;
73631;PMS5003;61924;53.268;-2.458;2023-02-08T09:11:02;33;32;
73631;PMS5003;61924;53.268;-2.458;2023-02-08T09:13:23;33;33;
73631;PMS5003;61924;53.268;-2.458;2023-02-08T09:15:49;29;28;
73631;PMS5003;61924;53.268;-2.458;2023-02-08T09:18:15;29;29;
73631;PMS5003;61924;53.268;-2.458;2023-02-08T09:20:40;30;28;
73631;PMS5003;61924;53.268;-2.458;2023-02-08T09:23:06;32;30;
73631;PMS5003;61924;53.268;-2.458;2023-02-08T09:25:31;32;31;
73631;PMS5003;61924;53.268;-2.458;2023-02-08T09:27:57;28;26;
73631;PMS5003;61924;53.268;-2.458;2023-02-08T09:30:22;28;28;
73631;PMS5003;61924;53.268;-2.458;2023-02-08T09:32:48;27;27;
73631;PMS5003;61924;53.268;-2.458;2023-02-08T09:35:13;27;27;
73631;PMS5003;61924;53.268;-2.458;2023-02-08T09:37:39;29;28;
73631;PMS5003;61924;53.268;-2.458;2023-02-08T09:40:04;25;24;
73631;PMS5003;61924;53.268;-2.458;2023-02-08T09:42:34;26;25;
73631;PMS5003;61924;53.268;-2.458;2023-02-08T09:44:59;28;27;
73631;PMS5003;61924;53.268;-2.458;2023-02-08T09:47:21;31;30;
73631;PMS5003;61924;53.268;-2.458;2023-02-08T09:49:47;28;28;
73631;PMS5003;61924;53.268;-2.458;2023-02-08T09:52:12;27;27;
73631;PMS5003;61924;53.268;-2.458;2023-02-08T09:54:36;29;29;
73631;PMS5003;61924;53.268;-2.458;2023-02-08T09:57:03;25;24;
73631;PMS5003;61924;53.268;-2.458;2023-02-08T09:59:27;29;29;
73631;PMS5003;61924;53.268;-2.458;2023-02-08T10:01:53;24;24;
73631;PMS5003;61924;53.268;-2.458;2023-02-08T10:04:20;29;29;
73631;PMS5003;61924;53.268;-2.458;2023-02-08T10:06:43;31;28;
73631;PMS5003;61924;53.268;-2.458;2023-02-08T10:09:09;29;28;
73631;PMS5003;61924;53.268;-2.458;2023-02-08T10:11:38;31;29;
73631;PMS5003;61924;53.268;-2.458;2023-02-08T10:14:03;28;27;
73631;PMS5003;61924;53.268;-2.458;2023-02-08T10:16:31;28;26;
73631;PMS5003;61924;53.268;-2.458;2023-02-08T10:18:51;26;26;
73631;PMS5003;61924;53.268;-2.458;2023-02-08T10:21:19;26;24;
73631;PMS5003;61924;53.268;-2.458;2023-02-08T10:23:45;24;24;
73631;PMS5003;61924;53.268;-2.458;2023-02-08T10:26:09;24;24;
73631;PMS5003;61924;53.268;-2.458;2023-02-08T10:28:39;26;26;
73631;PMS5003;61924;53.268;-2.458;2023-02-08T10:30:59;27;27;
73631;PMS5003;61924;53.268;-2.458;2023-02-08T10:33:24;26;25;
73631;PMS5003;61924;53.268;-2.458;2023-02-08T10:35:48;27;27;
73631;PMS5003;61924;53.268;-2.458;2023-02-08T10:38:17;26;25;
73631;PMS5003;61924;53.268;-2.458;2023-02-08T10:40:38;27;26;
73631;PMS5003;61924;53.268;-2.458;2023-02-08T10:43:10;24;23;
73631;PMS5003;61924;53.268;-2.458;2023-02-08T10:45:30;25;24;
73631;PMS5003;61924;53.268;-2.458;2023-02-08T10:47:55;25;24;
73631;PMS5003;61924;53.268;-2.458;2023-02-08T10:50:22;25;25;
73631;PMS5003;61924;53.268;-2.458;2023-02-08T10:52:46;24;24;
73631;PMS5003;61924;53.268;-2.458;2023-02-08T10:55:13;22;22;
73631;PMS5003;61924;53.268;-2.458;2023-02-08T10:57:37;27;26;
73631;PMS5003;61924;53.268;-2.458;2023-02-08T11:00:04;25;25;
73631;PMS5003;61924;53.268;-2.458;2023-02-08T11:02:30;23;22;
73631;PMS5003;61924;53.268;-2.458;2023-02-08T11:04:57;25;25;
73631;PMS5003;61924;53.268;-2.458;2023-02-08T11:07:19;23;23;
73631;PMS5003;61924;53.268;-2.458;2023-02-08T11:09:44;28;28;
73631;PMS5003;61924;53.268;-2.458;2023-02-08T11:12:14;21;21;
73631;PMS5003;61924;53.268;-2.458;2023-02-08T11:14:37;25;25;
73631;PMS5003;61924;53.268;-2.458;2023-02-08T11:17:02;24;24;
73631;PMS5003;61924;53.268;-2.458;2023-02-08T11:19:30;29;27;
73631;PMS5003;61924;53.268;-2.458;2023-02-08T11:21:53;25;25;
73631;PMS5003;61924;53.268;-2.458;2023-02-08T11:24:22;23;23;
73631;PMS5003;61924;53.268;-2.458;2023-02-08T11:26:43;23;22;
73631;PMS5003;61924;53.268;-2.458;2023-02-08T11:29:11;22;21;
73631;PMS5003;61924;53.268;-2.458;2023-02-08T11:31:33;24;24;
73631;PMS5003;61924;53.268;-2.458;2023-02-08T11:34:00;24;23;
73631;PMS5003;61924;53.268;-2.458;2023-02-08T11:36:25;23;23;
73631;PMS5003;61924;53.268;-2.458;2023-02-08T11:38:50;25;25;
73631;PMS5003;61924;53.268;-2.458;2023-02-08T11:41:16;24;23;
73631;PMS5003;61924;53.268;-2.458;2023-02-08T11:43:41;22;20;
73631;PMS5003;61924;53.268;-2.458;2023-02-08T11:46:07;21;21;
73631;PMS5003;61924;53.268;-2.458;2023-02-08T11:48:36;28;26;
73631;PMS5003;61924;53.268;-2.458;2023-02-08T11:50:58;24;22;
73631;PMS5003;61924;53.268;-2.458;2023-02-08T11:53:26;26;25;
73631;PMS5003;61924;53.268;-2.458;2023-02-08T11:55:59;23;23;
73631;PMS5003;61924;53.268;-2.458;2023-02-08T11:58:16;25;24;
73631;PMS5003;61924;53.268;-2.458;2023-02-08T12:00:39;21;21;
73631;PMS5003;61924;53.268;-2.458;2023-02-08T12:03:05;24;24;
73631;PMS5003;61924;53.268;-2.458;2023-02-08T12:05:32;23;23;
73631;PMS5003;61924;53.268;-2.458;2023-02-08T12:07:58;25;24;
73631;PMS5003;61924;53.268;-2.458;2023-02-08T12:10:23;22;22;
73631;PMS5003;61924;53.268;-2.458;2023-02-08T12:12:48;24;24;
73631;PMS5003;61924;53.268;-2.458;2023-02-08T12:15:14;26;24;
73631;PMS5003;61924;53.268;-2.458;2023-02-08T12:17:41;25;24;
73631;PMS5003;61924;53.268;-2.458;2023-02-08T12:20:07;23;22;
73631;PMS5003;61924;53.268;-2.458;2023-02-08T12:22:28;22;21;
73631;PMS5003;61924;53.268;-2.458;2023-02-08T12:24:55;23;22;
73631;PMS5003;61924;53.268;-2.458;2023-02-08T12:27:23;24;24;
73631;PMS5003;61924;53.268;-2.458;2023-02-08T12:29:45;21;21;
73631;PMS5003;61924;53.268;-2.458;2023-02-08T12:32:14;22;21;
73631;PMS5003;61924;53.268;-2.458;2023-02-08T12:34:41;24;23;
73631;PMS5003;61924;53.268;-2.458;2023-02-08T12:37:03;21;21;
73631;PMS5003;61924;53.268;-2.458;2023-02-08T12:39:29;20;20;
73631;PMS5003;61924;53.268;-2.458;2023-02-08T12:41:57;24;20;
73631;PMS5003;61924;53.268;-2.458;2023-02-08T12:44:19;26;25;
73631;PMS5003;61924;53.268;-2.458;2023-02-08T12:46:47;20;20;
73631;PMS5003;61924;53.268;-2.458;2023-02-08T12:49:13;21;20;
73631;PMS5003;61924;53.268;-2.458;2023-02-08T12:51:36;21;20;
73631;PMS5003;61924;53.268;-2.458;2023-02-08T12:53:59;19;19;
73631;PMS5003;61924;53.268;-2.458;2023-02-08T12:56:25;21;20;
73631;PMS5003;61924;53.268;-2.458;2023-02-08T12:58:50;25;24;
73631;PMS5003;61924;53.268;-2.458;2023-02-08T13:01:16;22;22;
73631;PMS5003;61924;53.268;-2.458;2023-02-08T13:03:42;21;21;
73631;PMS5003;61924;53.268;-2.458;2023-02-08T13:06:06;23;23;
73631;PMS5003;61924;53.268;-2.458;2023-02-08T13:08:32;22;22;
73631;PMS5003;61924;53.268;-2.458;2023-02-08T13:10:57;23;22;
73631;PMS5003;61924;53.268;-2.458;2023-02-08T13:13:22;21;21;
73631;PMS5003;61924;53.268;-2.458;2023-02-08T13:15:47;24;23;
73631;PMS5003;61924;53.268;-2.458;2023-02-08T13:18:14;21;20;
73631;PMS5003;61924;53.268;-2.458;2023-02-08T13:20:40;21;20;
73631;PMS5003;61924;53.268;-2.458;2023-02-08T13:23:05;20;20;
73631;PMS5003;61924;53.268;-2.458;2023-02-08T13:25:29;19;19;
73631;PMS5003;61924;53.268;-2.458;2023-02-08T13:27:54;22;21;
73631;PMS5003;61924;53.268;-2.458;2023-02-08T13:30:19;21;20;
73631;PMS5003;61924;53.268;-2.458;2023-02-08T13:32:44;21;19;
73631;PMS5003;61924;53.268;-2.458;2023-02-08T13:35:12;23;23;
73631;PMS5003;61924;53.268;-2.458;2023-02-08T13:37:35;20;19;
73631;PMS5003;61924;53.268;-2.458;2023-02-08T13:40:01;18;18;
73631;PMS5003;61924;53.268;-2.458;2023-02-08T13:42:27;19;18;
73631;PMS5003;61924;53.268;-2.458;2023-02-08T13:44:51;19;19;
73631;PMS5003;61924;53.268;-2.458;2023-02-08T13:47:21;20;20;
73631;PMS5003;61924;53.268;-2.458;2023-02-08T13:49:50;21;20;
73631;PMS5003;61924;53.268;-2.458;2023-02-08T13:52:07;21;21;
73631;PMS5003;61924;53.268;-2.458;2023-02-08T13:54:32;19;19;
73631;PMS5003;61924;53.268;-2.458;2023-02-08T13:56:57;21;21;
73631;PMS5003;61924;53.268;-2.458;2023-02-08T13:59:24;20;19;
73631;PMS5003;61924;53.268;-2.458;2023-02-08T14:02:09;20;20;
73631;PMS5003;61924;53.268;-2.458;2023-02-08T14:04:15;20;20;
73631;PMS5003;61924;53.268;-2.458;2023-02-08T14:06:42;23;22;
73631;PMS5003;61924;53.268;-2.458;2023-02-08T14:09:05;21;21;
73631;PMS5003;61924;53.268;-2.458;2023-02-08T14:11:32;17;17;
73631;PMS5003;61924;53.268;-2.458;2023-02-08T14:13:56;23;23;
73631;PMS5003;61924;53.268;-2.458;2023-02-08T14:16:22;23;22;
73631;PMS5003;61924;53.268;-2.458;2023-02-08T14:18:49;19;18;
73631;PMS5003;61924;53.268;-2.458;2023-02-08T14:21:15;20;19;
73631;PMS5003;61924;53.268;-2.458;2023-02-08T14:23:37;20;20;
73631;PMS5003;61924;53.268;-2.458;2023-02-08T14:26:05;17;17;
73631;PMS5003;61924;53.268;-2.458;2023-02-08T14:28:30;25;23;
73631;PMS5003;61924;53.268;-2.458;2023-02-08T14:30:55;20;19;
73631;PMS5003;61924;53.268;-2.458;2023-02-08T14:33:20;21;19;
73631;PMS5003;61924;53.268;-2.458;2023-02-08T14:35:50;21;21;
73631;PMS5003;61924;53.268;-2.458;2023-02-08T14:38:32;22;22;
73631;PMS5003;61924;53.268;-2.458;2023-02-08T14:40:51;22;20;
73631;PMS5003;61924;53.268;-2.458;2023-02-08T14:43:01;18;17;
73631;PMS5003;61924;53.268;-2.458;2023-02-08T14:45:27;20;19;
73631;PMS5003;61924;53.268;-2.458;2023-02-08T14:47:53;19;18;
73631;PMS5003;61924;53.268;-2.458;2023-02-08T14:50:17;20;19;
73631;PMS5003;61924;53.268;-2.458;2023-02-08T14:52:43;22;20;
73631;PMS5003;61924;53.268;-2.458;2023-02-08T14:55:11;20;19;
73631;PMS5003;61924;53.268;-2.458;2023-02-08T14:57:34;20;18;
73631;PMS5003;61924;53.268;-2.458;2023-02-08T15:00:00;24;22;
73631;PMS5003;61924;53.268;-2.458;2023-02-08T15:02:25;20;19;
73631;PMS5003;61924;53.268;-2.458;2023-02-08T15:04:50;20;19;
73631;PMS5003;61924;53.268;-2.458;2023-02-08T15:07:19;21;20;
73631;PMS5003;61924;53.268;-2.458;2023-02-08T15:09:42;18;16;
73631;PMS5003;61924;53.268;-2.458;2023-02-08T15:12:08;20;19;
73631;PMS5003;61924;53.268;-2.458;2023-02-08T15:14:33;18;18;
73631;PMS5003;61924;53.268;-2.458;2023-02-08T15:16:57;16;16;
73631;PMS5003;61924;53.268;-2.458;2023-02-08T15:19:23;19;19;
73631;PMS5003;61924;53.268;-2.458;2023-02-08T15:21:47;19;17;
73631;PMS5003;61924;53.268;-2.458;2023-02-08T15:24:13;21;21;
73631;PMS5003;61924;53.268;-2.458;2023-02-08T15:26:42;17;17;
73631;PMS5003;61924;53.268;-2.458;2023-02-08T15:29:05;17;17;
73631;PMS5003;61924;53.268;-2.458;2023-02-08T15:31:30;19;18;
73631;PMS5003;61924;53.268;-2.458;2023-02-08T15:33:54;19;18;
73631;PMS5003;61924;53.268;-2.458;2023-02-08T15:36:21;19;18;
73631;PMS5003;61924;53.268;-2.458;2023-02-08T15:38:46;18;18;
73631;PMS5003;61924;53.268;-2.458;2023-02-08T15:41:12;15;15;
73631;PMS5003;61924;53.268;-2.458;2023-02-08T15:43:36;16;16;
73631;PMS5003;61924;53.268;-2.458;2023-02-08T15:46:03;16;15;
73631;PMS5003;61924;53.268;-2.458;2023-02-08T15:48:27;18;18;
73631;PMS5003;61924;53.268;-2.458;2023-02-08T15:50:52;19;19;
73631;PMS5003;61924;53.268;-2.458;2023-02-08T15:53:18;17;16;